DW0501 Weather Reports


Display with metric or nautical units.
time (UTC)temp
F
wind
direction
speed
MPH
gust
MPH
rain 1hr
in
rain 24hr
in
rain mn
in
humidity
%
barometer
mb
20260504185048 77 291 0.0 0.0 0.00 0.00 0.00 34 1010.4
20260504184603 76 285 1.0 0.0 0.00 0.00 0.00 33 1010.4
20260504184047 76 285 1.0 0.0 0.00 0.00 0.00 31 1010.4
20260504183547 77 209 0.0 0.0 0.00 0.00 0.00 32 1010.5
20260504183047 77 131 0.0 0.0 0.00 0.00 0.00 31 1010.5
20260504182546 77 148 0.0 0.0 0.00 0.00 0.00 33 1010.5
20260504182046 77 95 0.0 0.0 0.00 0.00 0.00 32 1010.7
20260504181548 76 86 0.0 0.0 0.00 0.00 0.00 35 1010.7
20260504181045 76 56 0.0 0.0 0.00 0.00 0.00 33 1010.7
20260504180544 76 342 0.0 0.0 0.00 0.00 0.00 36 1010.9
20260504180045 75 350 0.0 0.0 0.00 0.00 0.00 32 1010.9
20260504175544 75 196 0.0 0.0 0.00 0.00 0.00 31 1010.9
20260504175043 75 342 0.0 0.0 0.00 0.00 0.00 33 1011.0
20260504174545 75 217 0.0 0.0 0.00 0.00 0.00 33 1011.0
20260504174042 75 167 1.0 0.0 0.00 0.00 0.00 32 1011.0
20260504173541 74 188 1.0 0.0 0.00 0.00 0.00 30 1011.3
20260504173041 75 220 0.0 0.0 0.00 0.00 0.00 31 1011.3
20260504172540 75 109 0.0 0.0 0.00 0.00 0.00 29 1011.3
20260504172040 75 155 0.0 0.0 0.00 0.00 0.00 31 1011.4
20260504171539 74 182 0.0 0.0 0.00 0.00 0.00 33 1011.4
20260504171038 73 208 0.0 0.0 0.00 0.00 0.00 36 1011.4
20260504170541 73 208 0.0 0.0 0.00 0.00 0.00 33 1011.5
20260504151017 65 104 0.0 0.0 0.00 0.00 0.00 39 1012.7
20260504150516 65 107 0.0 0.0 0.00 0.00 0.00 40 1013.0
20260504141007 61 119 0.0 0.0 0.00 0.00 0.00 49 1013.1
20260504140508 61 119 0.0 0.0 0.00 0.00 0.00 50 1013.2
20260504130559 57 299 0.0 0.0 0.00 0.00 0.00 58 1013.6
20260504110537 45 282 0.0 0.0 0.00 0.00 0.00 83 1014.0
20260504100532 46 282 0.0 0.0 0.00 0.00 0.00 82 1014.0
20260504081534 45 282 0.0 0.0 0.00 0.00 0.00 83 1014.5
20260504081024 45 282 0.0 0.0 0.00 0.00 0.00 83 1014.5
20260504080524 45 282 0.0 0.0 0.00 0.00 0.00 83 1014.4
20260504050510 42 282 0.0 0.0 0.00 0.00 0.00 80 1014.8
20260504050010 42 282 0.0 0.0 0.00 0.00 0.00 80 1014.8
20260504045509 42 282 0.0 0.0 0.00 0.00 0.00 80 1014.8
20260504045010 42 282 0.0 0.0 0.00 0.00 0.00 79 1014.8
20260504044509 42 282 0.0 0.0 0.00 0.00 0.00 79 1014.8
20260504044008 42 282 0.0 0.0 0.00 0.00 0.00 79 1014.8
20260504043508 42 282 0.0 0.0 0.00 0.00 0.00 79 1014.7
20260504043009 42 282 0.0 0.0 0.00 0.00 0.00 78 1014.7
20260504042507 42 282 0.0 0.0 0.00 0.00 0.00 78 1014.7
20260504042006 42 282 0.0 0.0 0.00 0.00 0.00 78 1014.8
20260504041506 42 282 0.0 0.0 0.00 0.00 0.00 78 1014.8
20260504041006 42 282 0.0 0.0 0.00 0.00 0.00 77 1014.8
20260504040505 42 282 0.0 0.0 0.00 0.00 0.00 77 1014.8
20260504040006 43 282 0.0 0.0 0.00 0.00 0.00 77 1014.8
20260504035504 43 282 0.0 0.0 0.00 0.00 0.00 76 1014.8
20260504035005 43 282 0.0 0.0 0.00 0.00 0.00 76 1014.6
20260504034508 43 282 0.0 0.0 0.00 0.00 0.00 75 1014.6
20260504034003 43 282 0.0 0.0 0.00 0.00 0.00 75 1014.6
20260504033503 43 282 0.0 0.0 0.00 0.00 0.00 74 1014.4
20260504033012 44 282 0.0 0.0 0.00 0.00 0.00 73 1014.4
20260504032504 44 282 0.0 0.0 0.00 0.00 0.00 73 1014.4
20260504032004 44 282 0.0 0.0 0.00 0.00 0.00 73 1014.3
20260504031506 44 282 0.0 0.0 0.00 0.00 0.00 72 1014.3
20260504031005 44 282 0.0 0.0 0.00 0.00 0.00 72 1014.3
20260504030502 45 282 0.0 0.0 0.00 0.00 0.00 71 1014.2
20260504030004 45 282 0.0 0.0 0.00 0.00 0.00 71 1014.2
20260504025502 45 282 0.0 0.0 0.00 0.00 0.00 71 1014.2
20260504025002 45 282 0.0 0.0 0.00 0.00 0.00 70 1014.2
20260504024508 45 282 0.0 0.0 0.00 0.00 0.00 70 1014.2
20260504024005 45 282 0.0 0.0 0.00 0.00 0.00 69 1014.2
20260504023502 46 282 0.0 0.0 0.00 0.00 0.00 68 1014.1
20260504023002 46 282 0.0 0.0 0.00 0.00 0.00 68 1014.1
20260504022502 46 282 0.0 0.0 0.00 0.00 0.00 67 1014.1
20260504022005 47 282 0.0 0.0 0.00 0.00 0.00 67 1014.1
20260504021501 47 282 0.0 0.0 0.00 0.00 0.00 66 1014.1
20260504021001 47 282 0.0 0.0 0.00 0.00 0.00 64 1014.1
20260504020501 47 282 0.0 0.0 0.00 0.00 0.00 64 1013.9
20260504020002 48 282 0.0 0.0 0.00 0.00 0.00 63 1013.9
20260504015600 48 282 0.0 0.0 0.00 0.00 0.00 63 1013.9
20260504015100 48 282 0.0 0.0 0.00 0.00 0.00 62 1013.9
20260504014601 48 282 0.0 0.0 0.00 0.00 0.00 61 1014.0
20260504014059 49 282 0.0 0.0 0.00 0.00 0.00 61 1014.0
20260504013601 49 282 0.0 0.0 0.00 0.00 0.00 59 1014.0
20260504013112 49 282 0.0 0.0 0.00 0.00 0.00 59 1013.8
20260504012600 49 282 0.0 0.0 0.00 0.00 0.00 58 1013.8
20260504012103 50 282 0.0 0.0 0.00 0.00 0.00 58 1013.8
20260504011559 50 282 0.0 0.0 0.00 0.00 0.00 56 1013.7
20260504011101 50 282 0.0 0.0 0.00 0.00 0.00 56 1013.7
20260504010559 51 282 0.0 0.0 0.00 0.00 0.00 55 1013.7
20260504005558 52 282 0.0 0.0 0.00 0.00 0.00 53 1013.7
20260504005058 52 282 0.0 0.0 0.00 0.00 0.00 52 1013.4
20260504004621 53 282 0.0 0.0 0.00 0.00 0.00 50 1013.4
20260504004057 53 282 0.0 0.0 0.00 0.00 0.00 49 1013.4
20260504003557 53 282 0.0 0.0 0.00 0.00 0.00 48 1013.3
20260504003101 54 282 0.0 0.0 0.00 0.00 0.00 47 1013.3
20260504002557 55 282 0.0 0.0 0.00 0.00 0.00 46 1013.3
20260504002059 55 282 0.0 0.0 0.00 0.00 0.00 44 1013.2
20260504001604 56 282 0.0 0.0 0.00 0.00 0.00 43 1013.2
20260504001100 56 282 0.0 0.0 0.00 0.00 0.00 42 1013.2
20260504000556 57 282 0.0 0.0 0.00 0.00 0.00 41 1013.1
20260504000056 57 282 0.0 0.0 0.00 0.00 0.00 40 1013.1
20260503235556 58 282 0.0 0.0 0.00 0.00 0.00 39 1013.1
20260503235100 58 282 0.0 0.0 0.00 0.00 0.00 38 1013.0
20260503234556 59 282 0.0 0.0 0.00 0.00 0.00 36 1013.0
20260503234056 59 282 0.0 0.0 0.00 0.00 0.00 36 1013.0
20260503233555 60 282 0.0 0.0 0.00 0.00 0.00 34 1012.8
20260503233056 60 282 0.0 0.0 0.00 0.00 0.00 31 1012.8
20260503232555 61 284 0.0 0.0 0.00 0.00 0.00 30 1012.8
20260503232058 61 257 0.0 0.0 0.00 0.00 0.00 30 1012.8
20260503231557 61 256 0.0 0.0 0.00 0.00 0.00 29 1012.8
20260503231057 61 256 0.0 0.0 0.00 0.00 0.00 30 1012.8
20260503230556 61 256 0.0 0.0 0.00 0.00 0.00 29 1012.7
20260503230054 62 256 0.0 0.0 0.00 0.00 0.00 29 1012.7
20260503225554 62 256 0.0 0.0 0.00 0.00 0.00 27 1012.7
20260503225054 62 281 0.0 0.0 0.00 0.00 0.00 28 1012.9
20260503224554 63 270 0.0 0.0 0.00 0.00 0.00 28 1012.9
20260503224054 64 270 0.0 0.0 0.00 0.00 0.00 27 1012.9
20260503223554 65 274 0.0 0.0 0.00 0.00 0.00 27 1012.9
20260503223057 65 257 1.0 0.0 0.00 0.00 0.00 27 1012.9
20260503222552 65 243 1.0 0.0 0.00 0.00 0.00 27 1012.9
20260503222055 65 305 0.0 0.0 0.00 0.00 0.00 28 1012.8
20260503221555 64 196 0.0 0.0 0.00 0.00 0.00 28 1012.8
20260503221056 65 236 1.0 0.0 0.00 0.00 0.00 26 1012.8
20260503220552 65 285 1.0 0.0 0.00 0.00 0.00 27 1012.9
20260503220058 65 258 1.0 0.0 0.00 0.00 0.00 27 1012.9
20260503215551 64 302 3.0 0.0 0.00 0.00 0.00 27 1012.9
20260503215051 64 168 2.0 0.0 0.00 0.00 0.00 27 1012.9
20260503214550 64 296 2.0 0.0 0.00 0.00 0.00 27 1012.9
20260503214049 64 264 3.0 0.0 0.00 0.00 0.00 26 1012.9
20260503213549 64 256 4.0 0.0 0.00 0.00 0.00 27 1012.9
20260503213053 64 285 4.0 0.0 0.00 0.00 0.00 26 1012.9
20260503212549 64 260 3.0 0.0 0.00 0.00 0.00 27 1012.9
20260503212049 64 315 3.0 0.0 0.00 0.00 0.00 28 1013.0
20260503211551 63 318 3.0 0.0 0.00 0.00 0.00 27 1013.0
20260503211051 64 282 2.0 0.0 0.00 0.00 0.00 27 1013.0
20260503210548 64 326 2.0 0.0 0.00 0.00 0.00 27 1013.0
20260503210047 64 237 3.0 0.0 0.00 0.00 0.00 28 1013.0
20260503205546 63 229 4.0 0.0 0.00 0.00 0.00 27 1013.0
20260503205046 63 179 4.0 0.0 0.00 0.00 0.00 27 1013.0
20260503204547 63 289 4.0 0.0 0.00 0.00 0.00 27 1013.0
20260503204046 63 352 4.0 0.0 0.00 0.00 0.00 27 1013.0
20260503203546 63 320 4.0 0.0 0.00 0.00 0.00 27 1013.2
20260503203046 63 298 5.0 0.0 0.00 0.00 0.00 28 1013.2
20260503202548 63 322 5.0 0.0 0.00 0.00 0.00 27 1013.2
20260503202046 62 322 6.0 0.0 0.00 0.00 0.00 28 1013.3
20260503201544 62 265 5.0 0.0 0.00 0.00 0.00 27 1013.3
20260503201047 63 277 4.0 0.0 0.00 0.00 0.00 29 1013.3
20260503200545 63 296 4.0 0.0 0.00 0.00 0.00 28 1013.5
20260503200047 63 233 4.0 0.0 0.00 0.00 0.00 31 1013.5
20260503195544 63 243 3.0 0.0 0.00 0.00 0.00 29 1013.5
20260503195043 63 251 3.0 0.0 0.00 0.00 0.00 30 1013.8
20260503194548 63 230 2.0 0.0 0.00 0.00 0.00 30 1013.8
20260503194042 63 309 3.0 0.0 0.00 0.00 0.00 31 1013.8
20260503193542 62 287 4.0 0.0 0.00 0.00 0.00 30 1013.9
20260503193043 62 299 3.0 0.0 0.00 0.00 0.00 33 1013.9
20260503192540 62 298 4.0 0.0 0.00 0.00 0.00 32 1013.9
20260503192040 61 285 5.0 0.0 0.00 0.00 0.00 31 1014.3
20260503191541 61 299 4.0 0.0 0.00 0.00 0.00 30 1014.3
20260503191040 61 0 3.0 0.0 0.00 0.00 0.00 33 1014.3
20260503190540 61 243 3.0 0.0 0.00 0.00 0.00 33 1014.3
20260503190044 60 319 4.0 0.0 0.00 0.00 0.00 35 1014.3
20260503185538 60 263 4.0 0.0 0.00 0.00 0.00 30 1014.3